Time;durP1;ratioP1;P1;durP2;ratioP2;P2;SDS_P1;SDS_P2;PMS_P1;PMS_P2;Temp;Humidity;BMP_temperature;BMP_pressure;BME280_temperature;BME280_humidity;BME280_pressure;Samples;Min_cycle;Max_cycle;Signal;HPM_P1;HPM_P2
2023/06/27 00:01:46;;;;;;;8.90;2.92;;;;;;;14.42;96.40;101113.53;4846341;29;20485;-85
2023/06/27 00:04:13;;;;;;;5.95;2.55;;;;;;;14.35;97.44;101120.69;4851908;29;20059;-84
2023/06/27 00:06:41;;;;;;;5.38;2.08;;;;;;;14.30;97.92;101114.63;4861284;29;20182;-86
2023/06/27 00:09:10;;;;;;;3.58;1.75;;;;;;;14.29;98.35;101117.25;4857412;29;20057;-86
2023/06/27 00:11:40;;;;;;;7.72;2.63;;;;;;;14.22;98.33;101122.66;4838847;29;20105;-86
2023/06/27 00:14:09;;;;;;;8.23;4.05;;;;;;;14.19;99.72;101121.81;4849305;29;20049;-86
2023/06/27 00:16:38;;;;;;;3.28;2.13;;;;;;;14.16;99.88;101128.00;4858491;29;20517;-85
2023/06/27 00:19:05;;;;;;;6.95;2.55;;;;;;;14.14;100.00;101132.41;4845527;29;20140;-86
2023/06/27 00:21:33;;;;;;;3.38;2.50;;;;;;;14.09;100.00;101123.72;4859371;29;20056;-86
2023/06/27 00:24:00;;;;;;;4.32;2.47;;;;;;;14.07;100.00;101122.91;4844894;29;20062;-85
2023/06/27 00:26:29;;;;;;;3.50;2.00;;;;;;;14.05;100.00;101127.31;4845136;29;20057;-86
2023/06/27 00:28:56;;;;;;;6.57;2.88;;;;;;;14.03;100.00;101129.13;4841126;29;20080;-86
2023/06/27 00:31:23;;;;;;;3.97;1.90;;;;;;;13.98;100.00;101125.69;4876817;29;20053;-85
2023/06/27 00:33:51;;;;;;;4.50;2.05;;;;;;;13.94;100.00;101137.16;4846597;29;20131;-85
2023/06/27 00:36:17;;;;;;;3.67;1.85;;;;;;;13.92;99.60;101129.25;4862858;29;20485;-86
2023/06/27 00:38:47;;;;;;;5.55;2.05;;;;;;;13.88;99.25;101130.19;4837913;29;20057;-85
2023/06/27 00:41:14;;;;;;;4.95;2.38;;;;;;;13.83;99.51;101122.38;4859196;29;20050;-86
2023/06/27 00:43:41;;;;;;;6.55;2.10;;;;;;;13.82;99.31;101130.28;4876684;29;20080;-85
2023/06/27 00:46:09;;;;;;;6.03;2.42;;;;;;;13.79;99.20;101130.34;4845929;29;20057;-85
2023/06/27 00:48:37;;;;;;;11.50;2.42;;;;;;;13.74;99.05;101127.78;4844935;29;20140;-85
2023/06/27 00:51:04;;;;;;;4.55;1.95;;;;;;;13.73;98.72;101128.69;4848766;29;20059;-86
2023/06/27 00:53:31;;;;;;;6.20;2.60;;;;;;;13.72;98.32;101132.19;4874444;29;20136;-85
2023/06/27 00:55:57;;;;;;;4.63;2.03;;;;;;;13.68;98.53;101127.88;4845932;29;20640;-86
2023/06/27 00:58:24;;;;;;;8.90;2.58;;;;;;;13.66;98.44;101135.78;4863002;29;20054;-86
2023/06/27 01:00:51;;;;;;;4.38;2.45;;;;;;;13.62;98.18;101136.69;4845150;29;20061;-86
2023/06/27 01:03:18;;;;;;;5.07;2.25;;;;;;;13.59;98.83;101128.00;4854738;29;20049;-86
2023/06/27 01:05:45;;;;;;;4.88;1.58;;;;;;;13.53;98.62;101132.47;4843646;29;20049;-86
2023/06/27 01:08:31;;;;;;;8.13;2.10;;;;;;;13.49;98.88;101133.41;4870173;29;20068;-86
2023/06/27 01:11:16;;;;;;;4.07;2.20;;;;;;;13.46;98.81;101140.44;4838790;29;20081;-85
2023/06/27 01:13:49;;;;;;;2.55;1.92;;;;;;;13.43;98.99;101138.72;4860621;29;20528;-85
2023/06/27 01:16:23;;;;;;;2.60;2.03;;;;;;;13.40;99.15;101137.00;4837670;29;20064;-84
2023/06/27 01:18:51;;;;;;;7.38;2.90;;;;;;;13.38;98.74;101133.50;4864996;29;20055;-85
2023/06/27 01:21:21;;;;;;;4.78;1.80;;;;;;;13.38;98.74;101135.28;4857097;29;20148;-86
2023/06/27 01:23:59;;;;;;;3.25;1.98;;;;;;;13.35;98.26;101136.16;4840493;29;20049;-84
2023/06/27 01:26:27;;;;;;;3.33;1.80;;;;;;;13.30;98.26;101139.75;4868946;29;20056;-85
2023/06/27 01:28:54;;;;;;;4.68;1.95;;;;;;;13.30;97.79;101135.34;4842449;29;20140;-86
2023/06/27 01:31:50;;;;;;;6.13;1.98;;;;;;;13.29;98.13;101135.38;4873817;29;20096;-86
2023/06/27 01:34:35;;;;;;;2.72;1.73;;;;;;;13.23;97.90;101136.31;4858601;29;20053;-84
2023/06/27 01:37:30;;;;;;;2.75;1.20;;;;;;;13.24;97.31;101132.78;4858872;29;20501;-86
2023/06/27 01:40:14;;;;;;;3.58;1.58;;;;;;;13.20;96.69;101131.09;4841488;29;20049;-85
2023/06/27 01:42:51;;;;;;;1.88;1.52;;;;;;;13.16;96.60;101135.50;4879113;29;20052;-85
2023/06/27 01:45:20;;;;;;;4.57;2.47;;;;;;;13.11;96.38;101124.19;4852864;29;20061;-84
2023/06/27 01:47:49;;;;;;;5.15;2.10;;;;;;;13.07;96.87;101125.09;4836592;29;20056;-83
2023/06/27 01:50:16;;;;;;;3.35;1.00;;;;;;;13.07;96.34;101125.09;4840770;29;20049;-85
2023/06/27 01:52:43;;;;;;;6.00;1.70;;;;;;;13.02;95.98;101124.28;4864979;29;20084;-86
2023/06/27 01:55:10;;;;;;;5.50;1.27;;;;;;;12.95;96.37;101125.25;4874345;29;20861;-85
2023/06/27 01:57:37;;;;;;;7.97;1.77;;;;;;;12.93;96.40;101127.03;4872800;29;20118;-86
2023/06/27 02:00:06;;;;;;;5.75;1.50;;;;;;;12.90;96.39;101123.53;4872559;29;20061;-84
2023/06/27 02:02:33;;;;;;;2.75;1.35;;;;;;;12.87;96.52;101127.97;4846880;29;20402;-86
2023/06/27 02:05:02;;;;;;;4.60;1.58;;;;;;;12.83;96.78;101119.25;4844372;29;20512;-83
2023/06/27 02:07:28;;;;;;;3.78;1.20;;;;;;;12.82;96.57;101122.75;4847815;29;20120;-85
2023/06/27 02:09:56;;;;;;;3.53;1.52;;;;;;;12.78;96.89;101120.19;4867080;29;20053;-85
2023/06/27 02:12:23;;;;;;;2.53;1.02;;;;;;;12.78;96.50;101120.19;4877747;29;20116;-85
2023/06/27 02:14:50;;;;;;;3.40;1.63;;;;;;;12.77;96.67;101121.06;4858730;29;20527;-86
2023/06/27 02:17:18;;;;;;;3.25;1.45;;;;;;;12.77;96.38;101118.44;4831319;29;20049;-85
2023/06/27 02:19:45;;;;;;;4.95;1.77;;;;;;;12.75;96.31;101123.72;4858364;29;20030;-86
2023/06/27 02:22:11;;;;;;;3.88;1.35;;;;;;;12.71;96.04;101122.00;4860143;29;20667;-85
2023/06/27 02:24:40;;;;;;;1.90;1.30;;;;;;;12.71;96.19;101125.50;4860729;29;20136;-86
2023/06/27 02:27:07;;;;;;;2.53;1.08;;;;;;;12.69;95.99;101122.00;4843222;29;20069;-85
2023/06/27 02:29:33;;;;;;;3.25;1.23;;;;;;;12.67;95.68;101122.91;4861156;29;20108;-84
2023/06/27 02:32:00;;;;;;;7.35;1.60;;;;;;;12.68;95.76;101128.13;4859972;29;20131;-84
2023/06/27 02:34:26;;;;;;;3.60;1.67;;;;;;;12.66;95.72;101122.06;4863847;29;20040;-84
2023/06/27 02:36:53;;;;;;;3.08;1.90;;;;;;;12.63;95.57;101119.44;4873072;29;20373;-84
2023/06/27 02:39:19;;;;;;;2.35;1.13;;;;;;;12.61;95.71;101118.59;4858474;29;20058;-85
2023/06/27 02:41:46;;;;;;;7.00;1.10;;;;;;;12.61;95.47;101113.34;4841115;29;20529;-84
2023/06/27 02:44:12;;;;;;;4.32;1.63;;;;;;;12.62;95.69;101125.59;4844639;29;20045;-84
2023/06/27 02:46:39;;;;;;;1.65;0.98;;;;;;;12.62;95.01;101116.84;4847352;29;20069;-85
2023/06/27 02:49:05;;;;;;;3.45;1.70;;;;;;;12.57;95.26;101120.38;4858310;29;20046;-85
2023/06/27 02:51:34;;;;;;;2.25;0.85;;;;;;;12.53;95.36;101116.03;4845021;29;20154;-85
2023/06/27 02:54:00;;;;;;;7.10;2.20;;;;;;;12.51;95.62;101119.56;4855194;29;20121;-86
2023/06/27 02:56:27;;;;;;;7.32;1.10;;;;;;;12.49;95.66;101116.06;4863461;29;20273;-87
2023/06/27 02:58:53;;;;;;;6.93;1.77;;;;;;;12.52;95.60;101126.56;4843574;29;20056;-85
2023/06/27 03:01:20;;;;;;;2.05;1.55;;;;;;;12.49;95.36;101124.84;4845049;29;20048;-85
2023/06/27 03:03:46;;;;;;;2.33;1.48;;;;;;;12.49;95.42;101123.94;4855837;29;20185;-85
2023/06/27 03:06:13;;;;;;;1.30;1.20;;;;;;;12.49;95.62;101118.69;4843866;29;20140;-84
2023/06/27 03:08:40;;;;;;;3.58;1.25;;;;;;;12.51;95.61;101117.81;4843661;29;20375;-85
2023/06/27 03:11:06;;;;;;;1.63;1.15;;;;;;;12.49;95.58;101114.34;4868045;29;20118;-85
2023/06/27 03:13:33;;;;;;;7.53;1.23;;;;;;;12.53;95.18;101120.44;4851897;29;20646;-84
2023/06/27 03:16:00;;;;;;;3.28;1.42;;;;;;;12.53;95.29;101115.19;4857917;29;20459;-85
2023/06/27 03:18:27;;;;;;;4.38;1.50;;;;;;;12.53;95.04;101115.19;4843926;29;20044;-84
2023/06/27 03:20:53;;;;;;;2.15;1.90;;;;;;;12.54;95.42;101111.66;4844185;29;20055;-85
2023/06/27 03:23:20;;;;;;;4.70;2.15;;;;;;;12.57;95.28;101114.25;4863772;29;20488;-85
2023/06/27 03:25:47;;;;;;;3.55;1.25;;;;;;;12.58;95.28;101116.88;4842468;29;20041;-84
2023/06/27 03:28:13;;;;;;;1.88;1.65;;;;;;;12.59;95.12;101115.09;4838064;29;20041;-86
2023/06/27 03:30:43;;;;;;;4.97;1.30;;;;;;;12.58;95.02;101108.13;4843973;29;20042;-86
2023/06/27 03:33:10;;;;;;;3.10;1.65;;;;;;;12.58;95.28;101109.00;4837196;29;20502;-86
2023/06/27 03:35:37;;;;;;;3.65;1.17;;;;;;;12.63;94.77;101110.69;4848365;29;20038;-85
2023/06/27 03:38:04;;;;;;;5.57;1.30;;;;;;;12.62;95.00;101107.22;4849516;29;20057;-86
2023/06/27 03:40:30;;;;;;;4.60;2.08;;;;;;;12.68;95.24;101112.38;4853780;29;20056;-83
2023/06/27 03:42:57;;;;;;;2.08;1.33;;;;;;;12.69;94.47;101118.53;4858706;29;20523;-84
2023/06/27 03:45:24;;;;;;;6.05;1.70;;;;;;;12.70;95.11;101120.28;4842884;29;20063;-85
2023/06/27 03:47:50;;;;;;;4.60;1.27;;;;;;;12.70;94.96;101122.91;4840019;29;20524;-85
2023/06/27 03:50:17;;;;;;;1.83;1.65;;;;;;;12.68;94.84;101107.13;4850949;29;20084;-85
2023/06/27 03:52:44;;;;;;;3.63;1.40;;;;;;;12.71;94.92;101108.84;4873938;29;20056;-85
2023/06/27 03:55:11;;;;;;;9.15;1.25;;;;;;;12.78;94.57;101109.69;4856667;29;20072;-85
2023/06/27 03:57:41;;;;;;;2.88;1.33;;;;;;;12.83;94.31;101118.38;4859522;29;20052;-85
2023/06/27 04:00:10;;;;;;;4.03;1.15;;;;;;;12.88;93.93;101117.44;4855260;29;20293;-85
2023/06/27 04:02:37;;;;;;;2.65;1.42;;;;;;;12.94;93.78;101113.00;4846560;29;20064;-85
2023/06/27 04:05:04;;;;;;;3.85;1.70;;;;;;;12.99;93.37;101114.69;4841624;29;20192;-86
2023/06/27 04:07:30;;;;;;;5.28;1.65;;;;;;;13.06;93.64;101116.38;4853052;29;20057;-85
2023/06/27 04:10:05;;;;;;;5.22;1.52;;;;;;;13.13;92.74;101124.16;4840150;29;20320;-86
2023/06/27 04:12:32;;;;;;;3.25;1.73;;;;;;;13.19;92.78;101118.81;4856537;29;20045;-86
2023/06/27 04:14:59;;;;;;;5.00;1.80;;;;;;;13.27;92.22;101109.09;4827707;29;20137;-85
2023/06/27 04:17:25;;;;;;;5.20;2.00;;;;;;;13.36;91.67;101113.34;4845713;29;20057;-84
2023/06/27 04:19:53;;;;;;;1.17;1.08;;;;;;;13.47;91.67;101127.28;4855814;29;20064;-86
2023/06/27 04:22:20;;;;;;;5.82;1.38;;;;;;;13.54;91.01;101112.28;4856836;29;20548;-84
2023/06/27 04:24:48;;;;;;;3.97;1.15;;;;;;;13.61;90.86;101121.84;4852117;29;20745;-85
2023/06/27 04:27:15;;;;;;;4.68;1.35;;;;;;;13.67;90.19;101116.47;4844586;29;20053;-87
2023/06/27 04:29:42;;;;;;;3.60;1.23;;;;;;;13.73;90.11;101116.38;4843506;29;20169;-87
2023/06/27 04:32:09;;;;;;;4.15;1.13;;;;;;;13.79;89.98;101117.19;4849263;29;20573;-86
2023/06/27 04:34:36;;;;;;;4.60;1.27;;;;;;;13.87;89.99;101120.56;4844355;29;20370;-86
2023/06/27 04:37:04;;;;;;;1.65;1.13;;;;;;;13.95;89.43;101126.59;4839287;29;20042;-86
2023/06/27 04:39:31;;;;;;;3.33;1.23;;;;;;;13.98;89.58;101116.00;4875722;29;20508;-86
2023/06/27 04:42:00;;;;;;;3.85;1.50;;;;;;;14.03;89.46;101115.94;4843257;29;20410;-86
2023/06/27 04:44:27;;;;;;;5.50;2.08;;;;;;;14.08;89.48;101122.00;4858873;29;20041;-86
2023/06/27 04:46:53;;;;;;;3.17;1.42;;;;;;;14.15;89.64;101122.78;4861227;29;20041;-87
2023/06/27 04:49:20;;;;;;;4.68;1.55;;;;;;;14.20;89.37;101120.94;4866078;29;20630;-85
2023/06/27 04:51:47;;;;;;;4.07;1.77;;;;;;;14.25;89.42;101112.94;4866863;29;20136;-86
2023/06/27 04:54:14;;;;;;;2.58;1.70;;;;;;;14.33;89.17;101111.06;4848779;29;20556;-87
2023/06/27 04:56:41;;;;;;;3.70;2.08;;;;;;;14.40;89.31;101115.31;4859130;29;20050;-85
2023/06/27 04:59:09;;;;;;;3.60;1.45;;;;;;;14.49;89.15;101111.66;4842844;29;20103;-84
2023/06/27 05:01:35;;;;;;;4.13;1.77;;;;;;;14.56;88.97;101113.28;4845404;29;20041;-84
2023/06/27 05:04:05;;;;;;;2.72;1.80;;;;;;;14.62;88.67;101112.31;4842664;29;20520;-85
2023/06/27 05:06:34;;;;;;;4.47;1.95;;;;;;;14.67;88.74;101113.13;4838490;29;20053;-87
2023/06/27 05:09:03;;;;;;;14.15;3.55;;;;;;;14.73;88.74;101115.63;4836186;29;20053;-85
2023/06/27 05:11:31;;;;;;;3.72;1.92;;;;;;;14.78;88.62;101110.28;4827174;29;20049;-85
2023/06/27 05:13:58;;;;;;;2.95;1.90;;;;;;;14.79;88.86;101112.88;4843525;29;20523;-85
2023/06/27 05:16:25;;;;;;;4.90;1.55;;;;;;;14.86;88.36;101111.00;4845920;29;20137;-84
2023/06/27 05:18:53;;;;;;;5.93;2.15;;;;;;;14.92;87.79;101112.66;4828713;29;20127;-86
2023/06/27 05:21:20;;;;;;;3.08;1.55;;;;;;;14.97;87.85;101109.03;4865541;29;20147;-87
2023/06/27 05:23:49;;;;;;;5.68;1.75;;;;;;;15.02;86.90;101106.31;4857946;29;20413;-85
2023/06/27 05:26:19;;;;;;;2.75;1.92;;;;;;;15.08;86.63;101113.22;4857281;29;20052;-86
2023/06/27 05:28:46;;;;;;;8.25;2.40;;;;;;;15.11;86.95;101119.31;4853423;29;20109;-88
2023/06/27 05:31:13;;;;;;;5.25;1.80;;;;;;;15.15;86.27;101113.06;4859471;29;20188;-85
2023/06/27 05:33:41;;;;;;;3.25;1.67;;;;;;;15.20;86.15;101112.94;4858807;29;20126;-85
2023/06/27 05:36:08;;;;;;;2.40;1.23;;;;;;;15.26;85.42;101102.28;4840186;29;20041;-87
2023/06/27 05:38:34;;;;;;;5.10;1.73;;;;;;;15.29;85.50;101111.91;4858800;29;20053;-86
2023/06/27 05:41:02;;;;;;;3.25;1.70;;;;;;;15.34;85.10;101110.03;4860085;29;20129;-85
2023/06/27 05:43:29;;;;;;;3.88;1.73;;;;;;;15.41;84.72;101106.38;4863411;29;20064;-86
2023/06/27 05:45:57;;;;;;;5.20;0.85;;;;;;;15.48;84.37;101104.47;4829943;29;20136;-86
2023/06/27 05:48:23;;;;;;;6.75;2.60;;;;;;;15.51;84.29;101110.53;4858317;29;20053;-86
2023/06/27 05:50:50;;;;;;;2.05;1.70;;;;;;;15.59;84.07;101104.22;4878129;29;20076;-87
2023/06/27 05:53:19;;;;;;;4.88;1.80;;;;;;;15.64;83.92;101104.97;4855107;29;20481;-86
2023/06/27 05:55:46;;;;;;;4.50;2.25;;;;;;;15.69;83.08;101105.75;4860492;29;20513;-85
2023/06/27 05:58:13;;;;;;;4.53;1.55;;;;;;;15.78;82.94;101105.53;4857840;29;20123;-86
2023/06/27 06:00:40;;;;;;;3.35;1.63;;;;;;;15.82;82.14;101107.22;4861077;29;20505;-85
2023/06/27 06:03:06;;;;;;;4.70;1.55;;;;;;;15.87;82.05;101107.13;4844258;29;20053;-85
2023/06/27 06:05:37;;;;;;;2.45;1.15;;;;;;;15.91;81.98;101103.50;4861468;29;20040;-85
2023/06/27 06:08:04;;;;;;;3.03;1.45;;;;;;;15.92;81.63;101107.88;4842720;29;20064;-85
2023/06/27 06:10:32;;;;;;;6.50;1.38;;;;;;;16.02;81.22;101113.78;4828965;29;20062;-86
2023/06/27 06:12:59;;;;;;;3.35;1.35;;;;;;;16.04;80.81;101104.94;4834087;29;20037;-85
2023/06/27 06:15:28;;;;;;;9.20;2.65;;;;;;;16.13;80.72;101113.56;4841247;29;20057;-85
2023/06/27 06:17:55;;;;;;;4.00;2.13;;;;;;;16.18;80.38;101111.66;4856424;29;20057;-84
2023/06/27 06:20:26;;;;;;;4.82;1.75;;;;;;;16.29;79.85;101114.88;4854226;29;20064;-85
2023/06/27 06:22:54;;;;;;;4.50;2.00;;;;;;;16.33;79.97;101118.31;4855233;29;20053;-84
2023/06/27 06:25:24;;;;;;;5.80;1.48;;;;;;;16.34;79.79;101118.28;4858978;29;20416;-85
2023/06/27 06:27:51;;;;;;;7.35;2.22;;;;;;;16.36;79.92;101113.84;4857911;29;20136;-85
2023/06/27 06:30:18;;;;;;;3.25;1.58;;;;;;;16.42;79.78;101123.38;4875415;29;20091;-85
2023/06/27 06:32:46;;;;;;;8.40;1.40;;;;;;;16.47;79.22;101125.91;4845673;29;20058;-84
2023/06/27 06:35:14;;;;;;;2.75;1.13;;;;;;;16.49;79.25;101124.94;4857927;29;20121;-87
2023/06/27 06:37:41;;;;;;;2.70;1.40;;;;;;;16.52;79.21;101122.22;4850763;29;20049;-84
2023/06/27 06:40:08;;;;;;;3.83;1.77;;;;;;;16.55;79.06;101121.28;4864325;29;20045;-84
2023/06/27 06:42:35;;;;;;;3.47;1.30;;;;;;;16.57;79.77;101119.47;4843679;29;20307;-86
2023/06/27 06:45:02;;;;;;;5.22;1.10;;;;;;;16.65;78.90;101120.13;4855913;29;20053;-86
2023/06/27 06:47:29;;;;;;;1.30;1.20;;;;;;;16.71;79.06;101124.38;4875384;29;20042;-85
2023/06/27 06:49:56;;;;;;;8.50;1.48;;;;;;;16.76;79.13;101117.19;4861903;29;20049;-84
2023/06/27 06:52:24;;;;;;;4.05;1.10;;;;;;;16.85;78.69;101119.56;4840239;29;20077;-87
2023/06/27 06:54:51;;;;;;;5.13;1.77;;;;;;;16.90;77.88;101116.84;4849110;29;20049;-83
2023/06/27 06:57:18;;;;;;;4.38;1.05;;;;;;;16.90;77.98;101116.84;4864462;29;20058;-84
2023/06/27 06:59:44;;;;;;;5.13;1.58;;;;;;;16.94;78.35;101115.84;4844924;29;20110;-84
2023/06/27 07:02:11;;;;;;;3.80;1.77;;;;;;;16.98;78.39;101109.53;4845378;29;20114;-84
2023/06/27 07:04:38;;;;;;;2.72;1.08;;;;;;;17.02;78.70;101112.97;4865403;29;20392;-83
2023/06/27 07:07:05;;;;;;;2.35;1.33;;;;;;;17.12;78.56;101105.66;4843626;29;20042;-83
2023/06/27 07:09:31;;;;;;;2.97;1.85;;;;;;;17.17;78.39;101109.03;4851086;29;20049;-83
2023/06/27 07:11:58;;;;;;;4.95;1.77;;;;;;;17.20;78.02;101101.84;4863025;29;20413;-84
2023/06/27 07:14:25;;;;;;;3.00;1.10;;;;;;;17.22;77.49;101098.31;4845111;29;20839;-85
2023/06/27 07:16:52;;;;;;;7.25;1.75;;;;;;;17.27;77.52;101096.38;4858894;29;20065;-84
2023/06/27 07:19:19;;;;;;;3.47;1.15;;;;;;;17.32;77.78;101094.47;4857525;29;20049;-84
2023/06/27 07:21:46;;;;;;;4.53;1.35;;;;;;;17.51;76.77;101086.84;4876485;29;20063;-84
2023/06/27 07:24:12;;;;;;;4.63;1.67;;;;;;;17.51;76.01;101086.84;4879437;29;20132;-83
2023/06/27 07:26:41;;;;;;;9.40;2.13;;;;;;;17.56;76.16;101103.47;4862172;29;20463;-84
2023/06/27 07:29:08;;;;;;;8.00;1.75;;;;;;;17.83;75.26;101087.59;4845297;29;20148;-85
2023/06/27 07:31:35;;;;;;;6.20;1.67;;;;;;;18.36;74.27;101089.41;4864808;29;20421;-84
2023/06/27 07:34:04;;;;;;;4.68;1.08;;;;;;;19.09;71.16;101098.31;4848364;29;20470;-86
2023/06/27 07:36:31;;;;;;;3.90;0.90;;;;;;;19.48;68.81;101083.59;4846590;29;20073;-83
2023/06/27 07:38:59;;;;;;;0.85;0.75;;;;;;;19.55;67.11;101089.50;4862268;29;20485;-85
2023/06/27 07:41:28;;;;;;;3.78;1.10;;;;;;;19.48;68.45;101084.44;4867880;29;20045;-83
2023/06/27 07:43:56;;;;;;;8.18;2.20;;;;;;;20.13;66.62;101089.81;4862644;29;20582;-84
2023/06/27 07:46:22;;;;;;;2.90;1.05;;;;;;;20.17;65.55;101082.59;4869123;29;20605;-84
2023/06/27 07:48:49;;;;;;;3.38;1.48;;;;;;;20.10;65.93;101081.09;4849307;29;20418;-86
2023/06/27 07:51:16;;;;;;;4.10;1.45;;;;;;;20.46;64.68;101091.09;4845792;29;20525;-84
2023/06/27 07:53:42;;;;;;;3.35;1.10;;;;;;;21.16;62.28;101083.56;4845949;29;20073;-86
2023/06/27 07:56:09;;;;;;;3.20;1.20;;;;;;;21.54;60.13;101085.38;4841143;29;20042;-86
2023/06/27 07:58:35;;;;;;;2.05;1.10;;;;;;;22.02;59.42;101077.72;4844717;29;20500;-84
2023/06/27 08:01:03;;;;;;;1.27;0.70;;;;;;;22.66;56.87;101075.34;4848102;29;20275;-86
2023/06/27 08:03:30;;;;;;;3.50;1.13;;;;;;;22.94;53.36;101072.06;4849386;29;20053;-86
2023/06/27 08:05:57;;;;;;;4.40;1.30;;;;;;;23.18;52.75;101069.03;4858271;29;20041;-84
2023/06/27 08:08:24;;;;;;;4.32;1.63;;;;;;;23.38;50.07;101067.94;4844706;29;20408;-84
2023/06/27 08:10:51;;;;;;;1.40;1.02;;;;;;;21.76;52.48;101067.41;4843721;29;20061;-86
2023/06/27 08:13:18;;;;;;;2.60;0.93;;;;;;;20.62;55.09;101075.31;4846449;29;20572;-85
2023/06/27 08:15:44;;;;;;;4.97;1.50;;;;;;;20.64;54.30;101086.78;4860033;29;20132;-85
2023/06/27 08:18:11;;;;;;;3.25;1.00;;;;;;;21.58;51.38;101081.66;4843780;29;20160;-86
2023/06/27 08:20:38;;;;;;;4.97;0.75;;;;;;;21.75;50.64;101084.34;4849063;29;20053;-84
2023/06/27 08:23:10;;;;;;;2.67;0.80;;;;;;;21.43;51.35;101075.22;4859724;29;20584;-84
2023/06/27 08:25:39;;;;;;;1.63;0.85;;;;;;;20.77;52.77;101071.16;4833339;29;20124;-84
2023/06/27 08:28:06;;;;;;;2.95;0.63;;;;;;;20.47;53.64;101072.41;4839714;29;20513;-86
2023/06/27 08:30:33;;;;;;;1.95;0.88;;;;;;;21.29;51.59;101075.88;4848984;29;20052;-87
2023/06/27 08:33:00;;;;;;;2.75;0.77;;;;;;;21.44;50.13;101067.13;4861755;29;20058;-84
2023/06/27 08:35:27;;;;;;;2.03;0.73;;;;;;;22.16;48.38;101069.03;4859396;29;20057;-87
2023/06/27 08:37:53;;;;;;;3.63;0.85;;;;;;;22.84;47.14;101063.72;4847627;29;20056;-86
2023/06/27 08:40:22;;;;;;;2.65;0.95;;;;;;;23.09;46.63;101065.91;4863776;29;20049;-87
2023/06/27 08:42:49;;;;;;;3.25;0.95;;;;;;;23.71;43.71;101067.78;4845123;29;20073;-87
2023/06/27 08:45:16;;;;;;;1.75;0.70;;;;;;;24.28;41.78;101060.97;4883793;29;20076;-87
2023/06/27 08:47:48;;;;;;;1.98;0.70;;;;;;;24.00;42.08;101059.94;4869980;29;20052;-87
2023/06/27 08:50:17;;;;;;;4.60;0.93;;;;;;;22.77;43.90;101054.28;4855681;29;20061;-87
2023/06/27 08:52:48;;;;;;;2.80;1.13;;;;;;;21.94;45.07;101056.75;4860001;29;20054;-87
2023/06/27 08:55:26;;;;;;;2.25;0.70;;;;;;;21.83;45.95;101056.47;4877308;29;20056;-88
2023/06/27 08:57:56;;;;;;;1.05;0.55;;;;;;;22.39;44.59;101060.72;4848538;29;20050;-87
2023/06/27 09:00:26;;;;;;;2.38;0.82;;;;;;;22.24;44.64;101054.38;4827798;29;20429;-85
2023/06/27 09:02:53;;;;;;;2.72;0.70;;;;;;;22.80;44.31;101051.44;4843003;29;20535;-87
2023/06/27 09:05:20;;;;;;;1.65;0.77;;;;;;;22.55;44.88;101046.56;4855377;29;20144;-87
2023/06/27 09:07:50;;;;;;;1.83;0.75;;;;;;;22.07;45.93;101049.00;4824538;29;20058;-88
2023/06/27 09:10:16;;;;;;;4.30;0.85;;;;;;;22.72;45.74;101051.00;4852890;29;20402;-88
2023/06/27 09:12:45;;;;;;;4.95;0.95;;;;;;;23.61;43.25;101056.78;4852849;29;20107;-86
2023/06/27 09:15:12;;;;;;;2.90;1.23;;;;;;;24.47;41.95;101050.00;4839781;29;20084;-87
2023/06/27 09:17:39;;;;;;;2.72;0.82;;;;;;;24.68;40.23;101046.97;4840693;29;20569;-87
2023/06/27 09:20:06;;;;;;;4.07;0.80;;;;;;;25.14;39.27;101037.88;4856984;29;20485;-87
2023/06/27 09:22:34;;;;;;;3.03;0.70;;;;;;;25.27;38.11;101033.41;4842666;29;20737;-87
2023/06/27 09:25:14;;;;;;;5.35;1.17;;;;;;;24.22;40.26;101048.81;4840026;29;20049;-86
2023/06/27 09:27:41;;;;;;;4.00;0.60;;;;;;;23.22;42.33;101041.19;4840210;29;20057;-87
2023/06/27 09:30:12;;;;;;;3.25;1.27;;;;;;;22.37;44.23;101057.28;4870379;29;20121;-85
2023/06/27 09:33:00;;;;;;;3.30;0.88;;;;;;;22.20;44.98;101052.81;4859737;29;20426;-84
2023/06/27 09:35:31;;;;;;;3.05;1.30;;;;;;;24.02;41.45;101059.84;4843553;29;20051;-87
2023/06/27 09:38:07;;;;;;;3.63;1.25;;;;;;;26.01;38.16;101035.72;4856275;29;20053;-85
2023/06/27 09:40:36;;;;;;;3.42;0.80;;;;;;;27.65;34.26;101041.16;4858501;29;20675;-86
2023/06/27 09:43:06;;;;;;;0.82;0.60;;;;;;;27.99;32.39;101040.41;4844038;29;20064;-86
2023/06/27 09:45:33;;;;;;;5.25;1.10;;;;;;;27.87;32.62;101040.38;4838855;29;20049;-87
2023/06/27 09:47:59;;;;;;;2.38;0.77;;;;;;;26.93;34.36;101049.13;4840774;29;20523;-88
2023/06/27 09:50:31;;;;;;;1.08;0.77;;;;;;;25.08;37.30;101047.13;4832510;29;20108;-86
2023/06/27 09:53:04;;;;;;;1.80;1.08;;;;;;;24.04;39.69;101055.25;4860021;29;20128;-88
2023/06/27 09:55:30;;;;;;;1.88;0.70;;;;;;;25.30;37.37;101049.28;4846059;29;20049;-87
2023/06/27 09:57:58;;;;;;;2.95;0.60;;;;;;;27.60;32.94;101035.28;4842596;29;20053;-88
2023/06/27 10:00:27;;;;;;;1.67;0.80;;;;;;;28.54;30.26;101030.75;4844232;29;20144;-85
2023/06/27 10:02:54;;;;;;;3.38;0.70;;;;;;;27.21;32.44;101038.06;4862570;29;20502;-86
2023/06/27 10:05:22;;;;;;;3.60;0.90;;;;;;;25.31;35.21;101042.97;4845113;29;20130;-87
2023/06/27 10:07:51;;;;;;;3.22;0.68;;;;;;;24.08;37.86;101049.63;4861966;29;20045;-86
2023/06/27 10:10:20;;;;;;;2.67;1.10;;;;;;;24.96;36.99;101042.56;4839676;29;20085;-86
2023/06/27 10:12:48;;;;;;;1.98;0.60;;;;;;;26.20;35.37;101028.16;4863590;29;20036;-87
2023/06/27 10:15:16;;;;;;;2.92;0.70;;;;;;;28.32;32.21;101038.81;4860164;29;20058;-87
2023/06/27 10:17:42;;;;;;;2.38;0.60;;;;;;;29.38;29.78;101029.50;4873740;29;20060;-86
2023/06/27 10:20:12;;;;;;;1.88;0.50;;;;;;;30.17;28.78;101023.75;4852072;29;20049;-87
2023/06/27 10:22:44;;;;;;;3.08;0.60;;;;;;;31.44;28.38;101025.25;4870530;29;20065;-86
2023/06/27 10:25:12;;;;;;;1.08;0.50;;;;;;;31.57;28.37;101016.84;4878041;29;20057;-88
2023/06/27 10:27:42;;;;;;;1.65;0.45;;;;;;;29.54;28.58;101012.88;4843522;29;20049;-86
2023/06/27 10:30:24;;;;;;;4.25;0.65;;;;;;;27.22;32.01;101020.97;4860899;29;20136;-87
2023/06/27 10:32:51;;;;;;;2.47;0.77;;;;;;;27.77;31.64;101025.03;4873532;29;20140;-86
2023/06/27 10:35:27;;;;;;;4.05;0.77;;;;;;;29.36;28.87;101020.69;4873539;29;20053;-86
2023/06/27 10:38:16;;;;;;;1.95;0.82;;;;;;;30.51;27.30;101014.59;4845690;29;20038;-86
2023/06/27 10:41:05;;;;;;;1.55;0.70;;;;;;;31.90;25.81;101012.88;4856140;29;20107;-88
2023/06/27 10:43:52;;;;;;;0.85;0.60;;;;;;;30.98;26.20;101005.94;4862269;29;20152;-85
2023/06/27 10:46:27;;;;;;;0.88;0.50;;;;;;;30.27;27.46;101007.63;4845392;29;20140;-87
2023/06/27 10:49:01;;;;;;;0.45;0.43;;;;;;;29.97;27.79;101005.72;4853470;29;20121;-85
2023/06/27 10:51:41;;;;;;;1.98;0.60;;;;;;;30.05;27.32;100999.66;4861174;29;20528;-87
2023/06/27 10:54:07;;;;;;;2.10;0.45;;;;;;;30.74;27.01;100992.75;4862107;29;20044;-85
2023/06/27 10:56:38;;;;;;;1.15;0.57;;;;;;;31.71;24.81;101004.75;4855102;29;20045;-86
2023/06/27 10:59:08;;;;;;;1.27;0.47;;;;;;;31.26;25.55;101004.28;4857447;29;20397;-86
2023/06/27 11:01:35;;;;;;;0.70;0.70;;;;;;;31.72;24.50;101001.06;4863451;29;20045;-85
2023/06/27 11:04:21;;;;;;;2.47;0.52;;;;;;;31.43;25.21;100997.34;4842888;29;20056;-85
2023/06/27 11:06:48;;;;;;;1.45;0.20;;;;;;;31.11;25.19;100997.59;4843185;29;20071;-87
2023/06/27 11:09:19;;;;;;;0.40;0.32;;;;;;;31.13;25.86;100992.88;4852629;29;20144;-86
2023/06/27 11:12:15;;;;;;;2.88;0.60;;;;;;;31.82;25.28;100991.94;4840142;29;20623;-86
2023/06/27 11:14:45;;;;;;;3.13;0.80;;;;;;;31.89;25.10;100994.91;4836361;29;20551;-86
2023/06/27 11:17:13;;;;;;;4.80;0.82;;;;;;;30.62;25.89;100984.75;4855819;29;20049;-86
2023/06/27 11:19:42;;;;;;;1.65;0.70;;;;;;;28.37;29.34;100991.69;4852785;29;20049;-87
2023/06/27 11:22:09;;;;;;;3.30;0.68;;;;;;;26.29;32.29;100994.47;4848221;29;20057;-85
2023/06/27 11:24:36;;;;;;;1.33;0.65;;;;;;;25.99;33.56;100997.44;4841347;29;20438;-85
2023/06/27 11:27:06;;;;;;;1.42;0.45;;;;;;;28.26;30.06;100998.91;4855642;29;20102;-86
2023/06/27 11:29:33;;;;;;;5.28;1.20;;;;;;;30.28;27.20;100985.00;4845436;29;20054;-85
2023/06/27 11:32:00;;;;;;;2.40;0.32;;;;;;;31.95;25.40;100972.66;4851754;29;20045;-87